createdAt,value
2022-10-17T00:00:43.739Z,12.50
2022-10-17T00:03:11.046Z,12.50
2022-10-17T00:05:45.889Z,12.40
2022-10-17T00:08:14.259Z,12.40
2022-10-17T00:10:41.894Z,12.40
2022-10-17T00:13:09.243Z,12.40
2022-10-17T00:15:36.192Z,12.40
2022-10-17T00:18:03.606Z,12.40
2022-10-17T00:20:30.637Z,12.40
2022-10-17T00:22:57.630Z,12.40
2022-10-17T00:25:24.552Z,12.30
2022-10-17T00:27:51.424Z,12.30
2022-10-17T00:30:18.402Z,12.30
2022-10-17T00:32:45.284Z,12.30
2022-10-17T00:35:12.198Z,12.20
2022-10-17T00:37:39.142Z,12.20
2022-10-17T00:40:07.767Z,12.10
2022-10-17T00:42:35.023Z,12.20
2022-10-17T00:45:08.179Z,12.20
2022-10-17T00:47:36.702Z,12.10
2022-10-17T00:50:06.721Z,12.10
2022-10-17T00:52:34.194Z,12.10
2022-10-17T00:55:11.699Z,12.10
2022-10-17T00:57:39.802Z,12.10
2022-10-17T01:00:09.139Z,12.10
2022-10-17T01:02:36.774Z,12.00
2022-10-17T01:05:04.160Z,12.00
2022-10-17T01:07:34.690Z,12.00
2022-10-17T01:10:05.431Z,11.90
2022-10-17T01:13:09.417Z,11.90
2022-10-17T01:15:57.101Z,11.90
2022-10-17T01:18:27.007Z,11.90
2022-10-17T01:21:16.588Z,11.80
2022-10-17T01:23:49.178Z,11.90
2022-10-17T01:26:37.555Z,11.80
2022-10-17T01:29:36.665Z,11.80
2022-10-17T01:32:14.699Z,11.80
2022-10-17T01:35:20.795Z,11.70
2022-10-17T01:37:58.140Z,11.70
2022-10-17T01:40:45.362Z,11.70
2022-10-17T01:43:20.969Z,11.70
2022-10-17T01:45:59.035Z,11.70
2022-10-17T01:48:32.520Z,11.60
2022-10-17T01:51:06.074Z,11.60
2022-10-17T01:53:37.645Z,11.60
2022-10-17T01:56:07.085Z,11.60
2022-10-17T01:58:53.487Z,11.60
2022-10-17T02:01:22.229Z,11.60
2022-10-17T02:03:51.213Z,11.60
2022-10-17T02:06:18.172Z,11.60
2022-10-17T02:08:50.437Z,11.60
2022-10-17T02:11:19.129Z,11.50
2022-10-17T02:14:32.088Z,11.60
2022-10-17T02:17:06.672Z,11.60
2022-10-17T02:19:51.640Z,11.50
2022-10-17T02:22:36.314Z,11.60
2022-10-17T02:25:22.038Z,11.50
2022-10-17T02:28:00.928Z,11.50
2022-10-17T02:30:45.957Z,11.50
2022-10-17T02:33:25.087Z,11.50
2022-10-17T02:35:55.195Z,11.50
2022-10-17T02:38:22.961Z,11.40
2022-10-17T02:40:51.902Z,11.40
2022-10-17T02:43:20.247Z,11.50
2022-10-17T02:45:47.796Z,11.40
2022-10-17T02:48:38.862Z,11.40
2022-10-17T02:51:37.037Z,11.40
2022-10-17T02:54:03.838Z,11.30
2022-10-17T02:56:36.422Z,11.40
2022-10-17T02:59:06.151Z,11.30
2022-10-17T03:01:33.177Z,11.30
2022-10-17T03:04:11.798Z,11.30
2022-10-17T03:06:39.672Z,11.40
2022-10-17T03:09:06.872Z,11.30
2022-10-17T03:11:34.099Z,11.30
2022-10-17T03:14:00.901Z,11.30
2022-10-17T03:16:27.742Z,11.30
2022-10-17T03:18:54.598Z,11.30
2022-10-17T03:21:21.555Z,11.30
2022-10-17T03:23:48.432Z,11.30
2022-10-17T03:26:15.245Z,11.20
2022-10-17T03:28:42.116Z,11.20
2022-10-17T03:31:10.885Z,11.20
2022-10-17T03:33:37.815Z,11.20
2022-10-17T03:36:10.192Z,11.20
2022-10-17T03:38:37.592Z,11.10
2022-10-17T03:41:05.264Z,11.10
2022-10-17T03:43:32.370Z,11.20
2022-10-17T03:46:00.590Z,11.10
2022-10-17T03:48:28.999Z,11.20
2022-10-17T03:51:01.240Z,11.10
2022-10-17T03:53:28.650Z,11.20
2022-10-17T03:55:55.920Z,11.20
2022-10-17T03:58:22.950Z,11.20
2022-10-17T04:00:49.745Z,11.30
2022-10-17T04:03:17.423Z,11.30
2022-10-17T04:05:44.357Z,11.20
2022-10-17T04:08:11.184Z,11.20
2022-10-17T04:10:37.983Z,11.20
2022-10-17T04:13:06.494Z,11.10
2022-10-17T04:15:33.450Z,11.10
2022-10-17T04:18:00.315Z,11.10
2022-10-17T04:20:27.265Z,11.10
2022-10-17T04:22:54.100Z,11.20
2022-10-17T04:25:20.955Z,11.10
2022-10-17T04:27:49.075Z,11.10
2022-10-17T04:30:16.296Z,11.10
2022-10-17T04:32:43.211Z,11.10
2022-10-17T04:35:10.035Z,11.10
2022-10-17T04:37:36.859Z,11.00
2022-10-17T04:40:03.929Z,11.00
2022-10-17T04:42:30.954Z,11.00
2022-10-17T04:44:58.010Z,11.00
2022-10-17T04:47:24.823Z,11.00
2022-10-17T04:49:51.688Z,11.00
2022-10-17T04:52:18.510Z,11.00
2022-10-17T04:54:45.300Z,11.00
2022-10-17T04:57:12.436Z,11.00
2022-10-17T04:59:39.219Z,10.90
2022-10-17T05:02:06.206Z,10.90
2022-10-17T05:04:33.021Z,10.90
2022-10-17T05:06:59.856Z,10.90
2022-10-17T05:09:27.175Z,10.90
2022-10-17T05:11:54.096Z,10.90
2022-10-17T05:14:20.960Z,10.90
2022-10-17T05:16:47.780Z,10.90
2022-10-17T05:19:14.620Z,10.90
2022-10-17T05:21:41.394Z,11.00
2022-10-17T05:24:09.784Z,11.00
2022-10-17T05:26:36.671Z,11.00
2022-10-17T05:29:04.403Z,10.90
2022-10-17T05:31:31.823Z,10.90
2022-10-17T05:34:02.883Z,11.00
2022-10-17T05:36:29.883Z,11.00
2022-10-17T05:38:56.682Z,10.90
2022-10-17T05:41:23.462Z,10.90
2022-10-17T05:43:50.852Z,10.90
2022-10-17T05:46:17.801Z,10.90
2022-10-17T05:48:44.740Z,10.90
2022-10-17T05:51:11.705Z,10.90
2022-10-17T05:53:40.756Z,10.90
2022-10-17T05:56:09.913Z,11.00
2022-10-17T05:58:49.927Z,10.90
2022-10-17T06:01:18.004Z,10.90
2022-10-17T06:03:44.817Z,11.00
2022-10-17T06:06:13.480Z,11.00
2022-10-17T06:08:40.484Z,11.00
2022-10-17T06:11:10.073Z,11.00
2022-10-17T06:13:38.963Z,11.00
2022-10-17T06:16:06.605Z,11.00
2022-10-17T06:18:33.924Z,11.10
2022-10-17T06:21:08.940Z,11.10
2022-10-17T06:23:35.809Z,11.10
2022-10-17T06:26:04.180Z,11.20
2022-10-17T06:28:31.709Z,11.20
2022-10-17T06:30:58.560Z,11.20
2022-10-17T06:33:25.418Z,11.20
2022-10-17T06:35:56.803Z,11.30
2022-10-17T06:38:23.657Z,11.30
2022-10-17T06:40:50.495Z,11.40
2022-10-17T06:43:17.299Z,11.40
2022-10-17T06:45:46.839Z,11.40
2022-10-17T06:48:14.454Z,11.50
2022-10-17T06:50:41.468Z,11.50
2022-10-17T06:53:08.309Z,11.50
2022-10-17T06:55:35.169Z,11.50
2022-10-17T06:58:01.993Z,11.50
2022-10-17T07:00:28.958Z,11.60
2022-10-17T07:02:55.774Z,11.60
2022-10-17T07:05:22.589Z,11.60
2022-10-17T07:07:51.712Z,11.60
2022-10-17T07:10:18.822Z,11.60
2022-10-17T07:12:45.910Z,11.70
2022-10-17T07:15:13.158Z,11.80
2022-10-17T07:17:40.007Z,11.90
2022-10-17T07:20:07.468Z,11.90
2022-10-17T07:22:34.350Z,12.00
2022-10-17T07:25:01.203Z,12.00
2022-10-17T07:27:28.474Z,12.00
2022-10-17T07:29:55.436Z,11.90
2022-10-17T07:32:22.281Z,12.00
2022-10-17T07:34:49.097Z,12.00
2022-10-17T07:37:15.996Z,12.00
2022-10-17T07:39:42.869Z,12.00
2022-10-17T07:42:10.695Z,12.00
2022-10-17T07:44:37.492Z,12.00
2022-10-17T07:47:04.405Z,12.00
2022-10-17T07:49:31.380Z,12.00
2022-10-17T07:51:58.328Z,11.90
2022-10-17T07:54:25.368Z,11.90
2022-10-17T07:56:52.195Z,11.90
2022-10-17T07:59:19.439Z,11.90
2022-10-17T08:01:46.336Z,11.90
2022-10-17T08:04:13.225Z,11.90
2022-10-17T08:06:40.023Z,11.80
2022-10-17T08:09:06.875Z,11.80
2022-10-17T08:11:33.756Z,11.80
2022-10-17T08:14:00.545Z,11.80
2022-10-17T08:16:27.413Z,11.80
2022-10-17T08:18:54.264Z,11.80
2022-10-17T08:21:21.043Z,11.90
2022-10-17T08:23:47.886Z,11.90
2022-10-17T08:26:17.321Z,12.00
2022-10-17T08:28:44.387Z,12.00
2022-10-17T08:31:14.294Z,12.00
2022-10-17T08:33:42.097Z,12.00
2022-10-17T08:36:09.856Z,12.10
2022-10-17T08:38:43.144Z,12.00
2022-10-17T08:41:22.357Z,12.10
2022-10-17T08:44:20.053Z,12.10
2022-10-17T08:46:50.137Z,12.10
2022-10-17T08:49:47.287Z,12.10
2022-10-17T08:52:32.593Z,12.10
2022-10-17T08:54:59.783Z,12.10
2022-10-17T08:57:28.981Z,12.20
2022-10-17T08:59:56.896Z,12.30
2022-10-17T09:02:39.830Z,12.30
2022-10-17T09:05:27.206Z,12.40
2022-10-17T09:08:00.067Z,12.50
2022-10-17T09:10:32.462Z,12.60
2022-10-17T09:13:38.763Z,12.60
2022-10-17T09:16:31.798Z,12.60
2022-10-17T09:19:10.333Z,12.70
2022-10-17T09:21:44.967Z,12.80
2022-10-17T09:24:32.054Z,12.90
2022-10-17T09:26:59.262Z,13.00
2022-10-17T09:29:29.699Z,13.10
2022-10-17T09:32:08.801Z,13.10
2022-10-17T09:34:35.702Z,13.10
2022-10-17T09:37:03.050Z,13.20
2022-10-17T09:39:33.228Z,13.20
2022-10-17T09:42:01.505Z,13.30
2022-10-17T09:44:40.019Z,13.30
2022-10-17T09:47:09.849Z,13.50
2022-10-17T09:49:39.865Z,13.60
2022-10-17T09:52:19.118Z,13.50
2022-10-17T09:54:57.120Z,13.50
2022-10-17T09:57:24.285Z,13.50
2022-10-17T09:59:59.376Z,13.50
2022-10-17T10:02:29.042Z,13.60
2022-10-17T10:05:18.325Z,13.50
2022-10-17T10:08:03.490Z,13.50
2022-10-17T10:10:32.193Z,13.60
2022-10-17T10:13:16.260Z,13.60
2022-10-17T10:15:45.475Z,13.70
2022-10-17T10:18:36.678Z,13.70
2022-10-17T10:21:11.187Z,13.70
2022-10-17T10:23:40.670Z,13.70
2022-10-17T10:26:29.896Z,13.70
2022-10-17T10:29:00.762Z,13.80
2022-10-17T10:31:37.243Z,13.90
2022-10-17T10:34:19.069Z,13.90
2022-10-17T10:37:07.329Z,14.00
2022-10-17T10:40:15.071Z,14.00
2022-10-17T10:42:42.595Z,14.10
2022-10-17T10:45:46.827Z,14.00
2022-10-17T10:48:25.482Z,14.10
2022-10-17T10:51:01.083Z,14.20
2022-10-17T10:54:03.780Z,14.20
2022-10-17T10:56:44.497Z,14.20
2022-10-17T10:59:21.074Z,14.30
2022-10-17T11:02:05.173Z,14.30
2022-10-17T11:04:50.889Z,14.30
2022-10-17T11:07:43.694Z,14.30
2022-10-17T11:10:23.510Z,14.30
2022-10-17T11:13:04.959Z,14.50
2022-10-17T11:15:54.680Z,14.40
2022-10-17T11:18:43.074Z,14.40
2022-10-17T11:21:36.058Z,14.40
2022-10-17T11:24:21.337Z,14.40
2022-10-17T11:27:01.184Z,14.40
2022-10-17T11:29:33.879Z,14.30
2022-10-17T11:32:31.781Z,14.30
2022-10-17T11:35:07.860Z,14.40
2022-10-17T11:37:40.888Z,14.50
2022-10-17T11:40:29.979Z,14.50
2022-10-17T11:43:02.294Z,14.60
2022-10-17T11:45:35.775Z,14.70
2022-10-17T11:48:09.806Z,14.80
2022-10-17T11:53:31.779Z,14.60
2022-10-17T11:56:00.540Z,14.50
2022-10-17T11:58:39.408Z,14.50
2022-10-17T12:01:16.095Z,14.50
2022-10-17T12:04:06.998Z,14.50
2022-10-17T12:06:55.024Z,14.50
2022-10-17T12:09:50.873Z,14.50
2022-10-17T12:12:27.077Z,14.50
2022-10-17T12:14:55.018Z,14.50
2022-10-17T12:17:40.566Z,14.50
2022-10-17T12:20:25.613Z,14.60
2022-10-17T12:22:53.780Z,14.60
2022-10-17T12:25:24.905Z,14.60
2022-10-17T12:28:03.511Z,14.60
2022-10-17T12:30:30.580Z,14.70
2022-10-17T12:33:06.735Z,14.70
2022-10-17T12:35:36.424Z,14.80
2022-10-17T12:38:16.898Z,14.90
2022-10-17T12:40:48.439Z,14.80
2022-10-17T12:43:15.701Z,14.90
2022-10-17T12:45:52.812Z,14.80
2022-10-17T12:48:34.937Z,14.90
2022-10-17T12:54:17.704Z,14.90
2022-10-17T12:56:49.706Z,14.80
2022-10-17T12:59:28.927Z,14.60
2022-10-17T13:01:59.951Z,14.70
2022-10-17T13:04:27.839Z,14.60
2022-10-17T13:06:58.655Z,14.50
2022-10-17T13:09:38.698Z,14.60
2022-10-17T13:12:16.171Z,14.50
2022-10-17T13:14:43.625Z,14.60
2022-10-17T13:17:30.753Z,14.60
2022-10-17T13:19:58.304Z,14.60
2022-10-17T13:22:28.736Z,14.60
2022-10-17T13:25:16.339Z,14.60
2022-10-17T13:27:43.741Z,14.50
2022-10-17T13:30:32.251Z,14.50
2022-10-17T13:33:00.223Z,14.50
2022-10-17T13:35:58.862Z,14.50
2022-10-17T13:38:28.910Z,14.50
2022-10-17T13:41:05.782Z,14.50
2022-10-17T13:43:43.515Z,14.50
2022-10-17T13:46:36.873Z,14.50
2022-10-17T13:49:31.583Z,14.40
2022-10-17T13:51:59.644Z,14.40
2022-10-17T13:54:34.385Z,14.30
2022-10-17T13:57:02.610Z,14.50
2022-10-17T13:59:41.908Z,14.50
2022-10-17T14:02:17.600Z,14.30
2022-10-17T14:05:15.234Z,14.30
2022-10-17T14:08:10.698Z,14.20
2022-10-17T14:10:40.397Z,14.20
2022-10-17T14:13:18.866Z,14.10
2022-10-17T14:15:46.657Z,14.10
2022-10-17T14:18:34.816Z,14.10
2022-10-17T14:23:50.491Z,13.90
2022-10-17T14:26:23.015Z,13.80
2022-10-17T14:29:11.613Z,13.80
2022-10-17T14:31:38.593Z,13.80
2022-10-17T14:34:05.873Z,13.80
2022-10-17T14:36:39.278Z,13.70
2022-10-17T14:39:22.511Z,13.70
2022-10-17T14:41:50.874Z,13.70
2022-10-17T14:44:22.879Z,13.60
2022-10-17T14:46:54.123Z,13.50
2022-10-17T14:49:45.195Z,13.60
2022-10-17T14:52:15.174Z,13.60
2022-10-17T14:54:46.492Z,13.50
2022-10-17T14:57:25.978Z,13.50
2022-10-17T14:59:55.568Z,13.50
2022-10-17T15:02:27.512Z,13.40
2022-10-17T15:04:54.824Z,13.40
2022-10-17T15:07:22.290Z,13.40
2022-10-17T15:09:50.729Z,13.30
2022-10-17T15:12:20.761Z,13.30
2022-10-17T15:14:48.595Z,13.30
2022-10-17T15:17:21.076Z,13.30
2022-10-17T15:19:48.857Z,13.20
2022-10-17T15:22:16.324Z,13.30
2022-10-17T15:24:43.303Z,13.20
2022-10-17T15:27:31.185Z,13.20
2022-10-17T15:29:58.554Z,13.20
2022-10-17T15:32:25.395Z,13.20
2022-10-17T15:34:52.337Z,13.20
2022-10-17T15:37:22.519Z,13.20
2022-10-17T15:39:53.552Z,13.10
2022-10-17T15:42:28.599Z,13.10
2022-10-17T15:44:56.248Z,13.10
2022-10-17T15:47:31.198Z,13.10
2022-10-17T15:49:59.100Z,13.10
2022-10-17T15:52:26.534Z,13.10
2022-10-17T15:54:54.449Z,13.10
2022-10-17T15:57:24.496Z,13.10
2022-10-17T15:59:52.606Z,13.10
2022-10-17T16:02:21.095Z,13.10
2022-10-17T16:04:49.606Z,13.10
2022-10-17T16:07:17.061Z,13.10
2022-10-17T16:09:43.917Z,13.10
2022-10-17T16:12:28.971Z,13.10
2022-10-17T16:14:56.716Z,13.10
2022-10-17T16:17:23.526Z,13.10
2022-10-17T16:19:50.658Z,13.10
2022-10-17T16:22:32.736Z,13.00
2022-10-17T16:25:07.744Z,13.00
2022-10-17T16:27:34.842Z,13.00
2022-10-17T16:30:01.829Z,12.90
2022-10-17T16:32:29.329Z,13.00
2022-10-17T16:34:56.413Z,12.90
2022-10-17T16:37:23.227Z,12.90
2022-10-17T16:39:52.540Z,12.90
2022-10-17T16:42:20.811Z,12.90
2022-10-17T16:44:48.710Z,12.90
2022-10-17T16:47:16.281Z,12.90
2022-10-17T16:49:45.268Z,12.90
2022-10-17T16:52:13.114Z,12.90
2022-10-17T16:54:40.058Z,12.90
2022-10-17T16:57:07.054Z,12.90
2022-10-17T16:59:33.970Z,12.90
2022-10-17T17:02:00.800Z,12.80
2022-10-17T17:04:27.623Z,12.80
2022-10-17T17:06:54.529Z,12.90
2022-10-17T17:09:21.489Z,12.80
2022-10-17T17:11:48.337Z,12.80
2022-10-17T17:14:15.184Z,12.80
2022-10-17T17:16:43.388Z,12.80
2022-10-17T17:19:15.245Z,12.80
2022-10-17T17:21:47.637Z,12.80
2022-10-17T17:24:15.029Z,12.80
2022-10-17T17:26:41.864Z,12.80
2022-10-17T17:29:09.562Z,12.80
2022-10-17T17:31:38.310Z,12.80
2022-10-17T17:34:05.815Z,12.70
2022-10-17T17:36:35.380Z,12.70
2022-10-17T17:39:06.390Z,12.70
2022-10-17T17:41:33.694Z,12.70
2022-10-17T17:44:01.770Z,12.70
2022-10-17T17:46:28.883Z,12.70
2022-10-17T17:48:56.010Z,12.70
2022-10-17T17:51:28.318Z,12.70
2022-10-17T17:53:57.123Z,12.70
2022-10-17T17:56:26.333Z,12.70
2022-10-17T17:59:01.348Z,12.70
2022-10-17T18:01:31.471Z,12.70
2022-10-17T18:03:59.454Z,12.70
2022-10-17T18:06:27.221Z,12.70
2022-10-17T18:08:58.639Z,12.70
2022-10-17T18:11:27.326Z,12.70
2022-10-17T18:13:59.513Z,12.70
2022-10-17T18:16:29.739Z,12.70
2022-10-17T18:18:57.048Z,12.70
2022-10-17T18:21:24.247Z,12.70
2022-10-17T18:23:51.916Z,12.70
2022-10-17T18:26:19.900Z,12.70
2022-10-17T18:28:46.834Z,12.70
2022-10-17T18:31:22.203Z,12.70
2022-10-17T18:33:51.873Z,12.70
2022-10-17T18:36:19.381Z,12.70
2022-10-17T18:38:46.200Z,12.70
2022-10-17T18:41:16.152Z,12.70
2022-10-17T18:43:45.029Z,12.70
2022-10-17T18:46:18.049Z,12.70
2022-10-17T18:48:46.123Z,12.70
2022-10-17T18:51:14.841Z,12.60
2022-10-17T18:53:43.770Z,12.60
2022-10-17T18:56:11.625Z,12.60
2022-10-17T18:58:39.244Z,12.60
2022-10-17T19:01:09.778Z,12.50
2022-10-17T19:03:37.121Z,12.50
2022-10-17T19:06:09.284Z,12.50
2022-10-17T19:08:37.301Z,12.50
2022-10-17T19:11:12.738Z,12.50
2022-10-17T19:13:40.376Z,12.50
2022-10-17T19:16:08.740Z,12.50
2022-10-17T19:18:36.442Z,12.40
2022-10-17T19:21:04.873Z,12.40
2022-10-17T19:23:32.274Z,12.40
2022-10-17T19:26:07.348Z,12.40
2022-10-17T19:28:35.243Z,12.40
2022-10-17T19:31:02.913Z,12.30
2022-10-17T19:33:31.051Z,12.30
2022-10-17T19:35:59.892Z,12.30
2022-10-17T19:38:26.877Z,12.30
2022-10-17T19:40:53.908Z,12.20
2022-10-17T19:43:20.919Z,12.20
2022-10-17T19:45:55.785Z,12.20
2022-10-17T19:48:23.303Z,12.30
2022-10-17T19:50:50.281Z,12.20
2022-10-17T19:53:17.943Z,12.20
2022-10-17T19:55:45.139Z,12.20
2022-10-17T19:58:12.307Z,12.30
2022-10-17T20:00:39.134Z,12.30
2022-10-17T20:03:05.943Z,12.30
2022-10-17T20:05:32.765Z,12.30
2022-10-17T20:07:59.552Z,12.20
2022-10-17T20:10:26.394Z,12.20
2022-10-17T20:12:53.189Z,12.10
2022-10-17T20:15:19.993Z,12.20
2022-10-17T20:17:46.868Z,12.30
2022-10-17T20:20:13.705Z,12.20
2022-10-17T20:22:40.545Z,12.20
2022-10-17T20:25:08.058Z,12.20
2022-10-17T20:27:34.888Z,12.10
2022-10-17T20:30:02.449Z,12.10
2022-10-17T20:32:30.998Z,12.00
2022-10-17T20:34:58.065Z,12.00
2022-10-17T20:37:25.350Z,11.90
2022-10-17T20:40:10.726Z,11.90
2022-10-17T20:42:38.951Z,11.80
2022-10-17T20:45:06.498Z,11.80
2022-10-17T20:47:46.110Z,11.80
2022-10-17T20:50:14.915Z,11.70
2022-10-17T20:52:41.725Z,11.70
2022-10-17T20:55:08.778Z,11.70
2022-10-17T20:57:35.580Z,11.70
2022-10-17T21:00:02.395Z,11.70
2022-10-17T21:02:29.285Z,11.70
2022-10-17T21:04:56.083Z,11.70
2022-10-17T21:07:25.209Z,11.80
2022-10-17T21:09:52.579Z,11.70
2022-10-17T21:12:30.877Z,11.70
2022-10-17T21:15:04.023Z,11.70
2022-10-17T21:17:30.840Z,11.70
2022-10-17T21:19:58.038Z,11.60
2022-10-17T21:22:25.485Z,11.50
2022-10-17T21:24:52.305Z,11.50
2022-10-17T21:27:19.750Z,11.50
2022-10-17T21:29:47.294Z,11.50
2022-10-17T21:32:25.215Z,11.50
2022-10-17T21:35:00.956Z,11.40
2022-10-17T21:37:27.799Z,11.30
2022-10-17T21:39:54.621Z,11.20
2022-10-17T21:42:21.471Z,11.20
2022-10-17T21:44:48.307Z,11.20
2022-10-17T21:47:15.197Z,11.20
2022-10-17T21:49:42.059Z,11.20
2022-10-17T21:52:08.889Z,11.10
2022-10-17T21:54:35.727Z,11.10
2022-10-17T21:57:02.587Z,11.10
2022-10-17T21:59:31.545Z,11.10
2022-10-17T22:01:58.414Z,11.10
2022-10-17T22:04:25.284Z,11.10
2022-10-17T22:06:53.276Z,11.10
2022-10-17T22:09:23.749Z,11.10
2022-10-17T22:11:56.350Z,11.10
2022-10-17T22:14:26.499Z,11.20
2022-10-17T22:16:53.986Z,11.20
2022-10-17T22:19:24.513Z,11.20
2022-10-17T22:21:52.108Z,11.30
2022-10-17T22:26:48.556Z,11.30
2022-10-17T22:29:15.892Z,11.40
2022-10-17T22:31:43.247Z,11.30
2022-10-17T22:34:12.387Z,11.30
2022-10-17T22:36:39.294Z,11.30
2022-10-17T22:39:06.273Z,11.30
2022-10-17T22:41:33.190Z,11.40
2022-10-17T22:44:00.035Z,11.40
2022-10-17T22:46:26.906Z,11.30
2022-10-17T22:48:53.722Z,11.30
2022-10-17T22:51:20.617Z,11.30
2022-10-17T22:53:47.430Z,11.30
2022-10-17T22:56:16.762Z,11.30
2022-10-17T22:58:44.075Z,11.30
2022-10-17T23:01:16.426Z,11.30
2022-10-17T23:03:43.603Z,11.30
2022-10-17T23:06:10.727Z,11.30
2022-10-17T23:08:38.386Z,11.40
2022-10-17T23:11:05.862Z,11.40
2022-10-17T23:13:32.878Z,11.40
2022-10-17T23:15:59.731Z,11.40
2022-10-17T23:18:27.070Z,11.50
2022-10-17T23:20:54.581Z,11.50
2022-10-17T23:23:22.194Z,11.50
2022-10-17T23:25:49.823Z,11.50
2022-10-17T23:28:17.405Z,11.50
2022-10-17T23:30:44.519Z,11.50
2022-10-17T23:33:12.923Z,11.50
2022-10-17T23:35:40.214Z,11.50
2022-10-17T23:38:07.179Z,11.60
2022-10-17T23:40:35.406Z,11.60
2022-10-17T23:43:02.885Z,11.60
2022-10-17T23:45:33.413Z,11.60
2022-10-17T23:48:03.057Z,11.70
2022-10-17T23:50:29.878Z,11.70
2022-10-17T23:52:56.733Z,11.70
2022-10-17T23:55:23.536Z,11.70
2022-10-17T23:57:50.344Z,11.70
